sensor_id;sensor_type;location;lat;lon;timestamp;pressure;altitude;pressure_sealevel;temperature;humidity
58534;BME280;44109;52.398;7.024;2023-05-22T00:01:35;101279.25;;;18.97;100.00
58534;BME280;44109;52.398;7.024;2023-05-22T00:04:03;101275.97;;;19.06;100.00
58534;BME280;44109;52.398;7.024;2023-05-22T00:06:31;101273.97;;;19.02;100.00
58534;BME280;44109;52.398;7.024;2023-05-22T00:08:59;101274.28;;;19.12;100.00
58534;BME280;44109;52.398;7.024;2023-05-22T00:11:28;101277.06;;;19.15;100.00
58534;BME280;44109;52.398;7.024;2023-05-22T00:13:56;101266.75;;;19.01;100.00
58534;BME280;44109;52.398;7.024;2023-05-22T00:16:23;101271.94;;;19.07;100.00
58534;BME280;44109;52.398;7.024;2023-05-22T00:18:51;101272.28;;;19.12;100.00
58534;BME280;44109;52.398;7.024;2023-05-22T00:21:19;101275.97;;;19.06;100.00
58534;BME280;44109;52.398;7.024;2023-05-22T00:23:47;101272.88;;;18.89;100.00
58534;BME280;44109;52.398;7.024;2023-05-22T00:26:15;101272.66;;;18.66;100.00
58534;BME280;44109;52.398;7.024;2023-05-22T00:28:44;101265.03;;;18.73;100.00
58534;BME280;44109;52.398;7.024;2023-05-22T00:31:11;101263.03;;;18.70;100.00
58534;BME280;44109;52.398;7.024;2023-05-22T00:33:39;101263.06;;;18.67;100.00
58534;BME280;44109;52.398;7.024;2023-05-22T00:36:07;101263.44;;;18.72;100.00
58534;BME280;44109;52.398;7.024;2023-05-22T00:38:35;101257.78;;;18.76;100.00
58534;BME280;44109;52.398;7.024;2023-05-22T00:41:04;101270.53;;;18.84;100.00
58534;BME280;44109;52.398;7.024;2023-05-22T00:43:32;101273.41;;;18.77;100.00
58534;BME280;44109;52.398;7.024;2023-05-22T00:46:02;101273.75;;;18.86;100.00
58534;BME280;44109;52.398;7.024;2023-05-22T00:48:32;101270.47;;;18.91;100.00
58534;BME280;44109;52.398;7.024;2023-05-22T00:51:00;101278.50;;;18.93;100.00
58534;BME280;44109;52.398;7.024;2023-05-22T00:53:28;101279.69;;;18.95;100.00
58534;BME280;44109;52.398;7.024;2023-05-22T00:55:57;101273.66;;;18.93;100.00
58534;BME280;44109;52.398;7.024;2023-05-22T00:58:26;101276.88;;;18.95;100.00
58534;BME280;44109;52.398;7.024;2023-05-22T01:00:55;101285.31;;;18.95;100.00
58534;BME280;44109;52.398;7.024;2023-05-22T01:03:25;101285.66;;;18.97;100.00
58534;BME280;44109;52.398;7.024;2023-05-22T01:05:54;101279.66;;;18.99;100.00
58534;BME280;44109;52.398;7.024;2023-05-22T01:08:22;101281.63;;;18.98;100.00
58534;BME280;44109;52.398;7.024;2023-05-22T01:10:54;101270.41;;;18.98;100.00
58534;BME280;44109;52.398;7.024;2023-05-22T01:13:29;101265.66;;;18.92;100.00
58534;BME280;44109;52.398;7.024;2023-05-22T01:16:11;101257.69;;;18.83;100.00
58534;BME280;44109;52.398;7.024;2023-05-22T01:18:56;101248.44;;;18.86;100.00
58534;BME280;44109;52.398;7.024;2023-05-22T01:21:33;101245.22;;;18.84;100.00
58534;BME280;44109;52.398;7.024;2023-05-22T01:24:37;101240.41;;;18.85;100.00
58534;BME280;44109;52.398;7.024;2023-05-22T01:30:49;101222.72;;;18.88;100.00
58534;BME280;44109;52.398;7.024;2023-05-22T01:33:29;101225.56;;;18.84;100.00
58534;BME280;44109;52.398;7.024;2023-05-22T01:36:02;101224.72;;;18.87;100.00
58534;BME280;44109;52.398;7.024;2023-05-22T01:38:34;101225.53;;;18.88;100.00
58534;BME280;44109;52.398;7.024;2023-05-22T01:41:03;101219.56;;;18.82;100.00
58534;BME280;44109;52.398;7.024;2023-05-22T01:43:31;101239.56;;;18.91;100.00
58534;BME280;44109;52.398;7.024;2023-05-22T01:46:01;101241.53;;;18.94;100.00
58534;BME280;44109;52.398;7.024;2023-05-22T01:48:28;101252.78;;;18.94;100.00
58534;BME280;44109;52.398;7.024;2023-05-22T01:51:00;101247.56;;;18.93;100.00
58534;BME280;44109;52.398;7.024;2023-05-22T01:53:35;101237.97;;;18.90;100.00
58534;BME280;44109;52.398;7.024;2023-05-22T01:56:13;101216.75;;;18.82;100.00
58534;BME280;44109;52.398;7.024;2023-05-22T01:58:49;101224.25;;;18.96;100.00
58534;BME280;44109;52.398;7.024;2023-05-22T02:01:26;101234.25;;;19.00;100.00
58534;BME280;44109;52.398;7.024;2023-05-22T02:03:58;101234.59;;;19.02;100.00
58534;BME280;44109;52.398;7.024;2023-05-22T02:06:28;101195.19;;;18.72;100.00
58534;BME280;44109;52.398;7.024;2023-05-22T02:09:00;101246.31;;;18.97;100.00
58534;BME280;44109;52.398;7.024;2023-05-22T02:11:30;101250.34;;;18.96;100.00
58534;BME280;44109;52.398;7.024;2023-05-22T02:14:00;101245.94;;;18.95;100.00
58534;BME280;44109;52.398;7.024;2023-05-22T02:16:29;101237.50;;;18.95;100.00
58534;BME280;44109;52.398;7.024;2023-05-22T02:18:58;101233.09;;;18.94;100.00
58534;BME280;44109;52.398;7.024;2023-05-22T02:21:32;101228.28;;;18.95;100.00
58534;BME280;44109;52.398;7.024;2023-05-22T02:24:00;101233.47;;;18.96;100.00
58534;BME280;44109;52.398;7.024;2023-05-22T02:26:28;101234.69;;;18.95;100.00
58534;BME280;44109;52.398;7.024;2023-05-22T02:28:56;101233.94;;;18.91;100.00
58534;BME280;44109;52.398;7.024;2023-05-22T02:31:23;101231.13;;;18.91;100.00
58534;BME280;44109;52.398;7.024;2023-05-22T02:33:52;101234.31;;;18.93;100.00
58534;BME280;44109;52.398;7.024;2023-05-22T02:36:20;101222.25;;;18.93;100.00
58534;BME280;44109;52.398;7.024;2023-05-22T02:38:48;101213.06;;;18.89;100.00
58534;BME280;44109;52.398;7.024;2023-05-22T02:41:15;101211.91;;;18.86;100.00
58534;BME280;44109;52.398;7.024;2023-05-22T02:43:44;101208.28;;;18.86;100.00
58534;BME280;44109;52.398;7.024;2023-05-22T02:46:12;101208.69;;;18.84;100.00
58534;BME280;44109;52.398;7.024;2023-05-22T02:48:39;101201.47;;;18.83;100.00
58534;BME280;44109;52.398;7.024;2023-05-22T02:51:08;101193.47;;;18.82;100.00
58534;BME280;44109;52.398;7.024;2023-05-22T02:53:36;101184.66;;;18.80;100.00
58534;BME280;44109;52.398;7.024;2023-05-22T02:56:06;101181.50;;;18.74;100.00
58534;BME280;44109;52.398;7.024;2023-05-22T02:58:35;101174.28;;;18.73;100.00
58534;BME280;44109;52.398;7.024;2023-05-22T03:01:03;101173.13;;;18.67;100.00
58534;BME280;44109;52.398;7.024;2023-05-22T03:03:34;101173.13;;;18.67;100.00
58534;BME280;44109;52.398;7.024;2023-05-22T03:06:01;101165.50;;;18.67;100.00
58534;BME280;44109;52.398;7.024;2023-05-22T03:08:30;101170.31;;;18.67;100.00
58534;BME280;44109;52.398;7.024;2023-05-22T03:10:59;101171.56;;;18.62;100.00
58534;BME280;44109;52.398;7.024;2023-05-22T03:13:27;101166.78;;;18.56;100.00
58534;BME280;44109;52.398;7.024;2023-05-22T03:15:55;101174.97;;;18.39;100.00
58534;BME280;44109;52.398;7.024;2023-05-22T03:18:24;101167.41;;;18.33;100.00
58534;BME280;44109;52.398;7.024;2023-05-22T03:20:52;101166.84;;;18.48;100.00
58534;BME280;44109;52.398;7.024;2023-05-22T03:23:19;101160.81;;;18.54;100.00
58534;BME280;44109;52.398;7.024;2023-05-22T03:25:48;101163.31;;;18.41;100.00
58534;BME280;44109;52.398;7.024;2023-05-22T03:28:16;101152.81;;;18.48;100.00
58534;BME280;44109;52.398;7.024;2023-05-22T03:30:44;101154.34;;;18.57;100.00
58534;BME280;44109;52.398;7.024;2023-05-22T03:33:12;101155.09;;;18.61;100.00
58534;BME280;44109;52.398;7.024;2023-05-22T03:35:40;101147.06;;;18.63;100.00
58534;BME280;44109;52.398;7.024;2023-05-22T03:38:09;101157.47;;;18.66;100.00
58534;BME280;44109;52.398;7.024;2023-05-22T03:40:37;101148.22;;;18.65;100.00
58534;BME280;44109;52.398;7.024;2023-05-22T03:43:06;101139.09;;;18.58;100.00
58534;BME280;44109;52.398;7.024;2023-05-22T03:45:33;101128.69;;;18.55;100.00
58534;BME280;44109;52.398;7.024;2023-05-22T03:48:01;101134.72;;;18.53;100.00
58534;BME280;44109;52.398;7.024;2023-05-22T03:50:29;101126.63;;;18.59;100.00
58534;BME280;44109;52.398;7.024;2023-05-22T03:52:56;101127.50;;;18.52;100.00
58534;BME280;44109;52.398;7.024;2023-05-22T03:55:24;101130.75;;;18.47;100.00
58534;BME280;44109;52.398;7.024;2023-05-22T03:57:52;101126.38;;;18.42;100.00
58534;BME280;44109;52.398;7.024;2023-05-22T04:00:21;101119.28;;;18.31;100.00
58534;BME280;44109;52.398;7.024;2023-05-22T04:02:49;101114.84;;;18.33;100.00
58534;BME280;44109;52.398;7.024;2023-05-22T04:05:16;101122.44;;;18.36;100.00
58534;BME280;44109;52.398;7.024;2023-05-22T04:07:44;101124.84;;;18.34;100.00
58534;BME280;44109;52.398;7.024;2023-05-22T04:10:11;101114.47;;;18.31;100.00
58534;BME280;44109;52.398;7.024;2023-05-22T04:12:39;101114.03;;;18.33;100.00
58534;BME280;44109;52.398;7.024;2023-05-22T04:15:07;101113.25;;;18.32;100.00
58534;BME280;44109;52.398;7.024;2023-05-22T04:17:39;101113.63;;;18.34;100.00
58534;BME280;44109;52.398;7.024;2023-05-22T04:20:07;101115.22;;;18.35;100.00
58534;BME280;44109;52.398;7.024;2023-05-22T04:22:36;101104.88;;;18.25;100.00
58534;BME280;44109;52.398;7.024;2023-05-22T04:25:05;101105.66;;;18.29;100.00
58534;BME280;44109;52.398;7.024;2023-05-22T04:27:33;101109.56;;;18.39;100.00
58534;BME280;44109;52.398;7.024;2023-05-22T04:30:01;101057.63;;;18.16;100.00
58534;BME280;44109;52.398;7.024;2023-05-22T04:32:29;101091.84;;;18.45;100.00
58534;BME280;44109;52.398;7.024;2023-05-22T04:34:58;101104.97;;;18.56;100.00
58534;BME280;44109;52.398;7.024;2023-05-22T04:37:27;101110.94;;;18.61;100.00
58534;BME280;44109;52.398;7.024;2023-05-22T04:39:56;101107.16;;;18.41;100.00
58534;BME280;44109;52.398;7.024;2023-05-22T04:42:32;101107.00;;;18.55;100.00
58534;BME280;44109;52.398;7.024;2023-05-22T04:45:00;101113.81;;;18.58;100.00
58534;BME280;44109;52.398;7.024;2023-05-22T04:47:28;101113.34;;;18.63;100.00
58534;BME280;44109;52.398;7.024;2023-05-22T04:49:56;101117.69;;;18.71;100.00
58534;BME280;44109;52.398;7.024;2023-05-22T04:52:26;101117.25;;;18.76;100.00
58534;BME280;44109;52.398;7.024;2023-05-22T04:54:54;101115.56;;;18.82;100.00
58534;BME280;44109;52.398;7.024;2023-05-22T04:57:21;101110.69;;;18.86;100.00
58534;BME280;44109;52.398;7.024;2023-05-22T04:59:50;101127.91;;;18.92;100.00
58534;BME280;44109;52.398;7.024;2023-05-22T05:02:18;101121.03;;;18.96;100.00
58534;BME280;44109;52.398;7.024;2023-05-22T05:04:46;101129.41;;;19.00;100.00
58534;BME280;44109;52.398;7.024;2023-05-22T05:07:13;101124.59;;;19.00;100.00
58534;BME280;44109;52.398;7.024;2023-05-22T05:09:44;101124.94;;;19.02;100.00
58534;BME280;44109;52.398;7.024;2023-05-22T05:12:12;101129.28;;;19.11;100.00
58534;BME280;44109;52.398;7.024;2023-05-22T05:14:40;101125.63;;;19.14;100.00
58534;BME280;44109;52.398;7.024;2023-05-22T05:17:08;101129.16;;;19.21;100.00
58534;BME280;44109;52.398;7.024;2023-05-22T05:19:35;101131.84;;;19.29;100.00
58534;BME280;44109;52.398;7.024;2023-05-22T05:22:05;101134.16;;;19.37;100.00
58534;BME280;44109;52.398;7.024;2023-05-22T05:24:33;101135.66;;;19.45;100.00
58534;BME280;44109;52.398;7.024;2023-05-22T05:27:02;101131.53;;;19.54;100.00
58534;BME280;44109;52.398;7.024;2023-05-22T05:29:29;101144.75;;;19.57;100.00
58534;BME280;44109;52.398;7.024;2023-05-22T05:31:57;101145.59;;;19.23;100.00
58534;BME280;44109;52.398;7.024;2023-05-22T05:34:25;101149.16;;;19.27;100.00
58534;BME280;44109;52.398;7.024;2023-05-22T05:36:52;101158.97;;;19.12;100.00
58534;BME280;44109;52.398;7.024;2023-05-22T05:39:22;101154.41;;;19.25;100.00
58534;BME280;44109;52.398;7.024;2023-05-22T05:41:49;101151.38;;;19.43;100.00
58534;BME280;44109;52.398;7.024;2023-05-22T05:44:18;101170.00;;;19.64;100.00
58534;BME280;44109;52.398;7.024;2023-05-22T05:46:46;101164.25;;;19.71;100.00
58534;BME280;44109;52.398;7.024;2023-05-22T05:49:14;101173.47;;;19.44;100.00
58534;BME280;44109;52.398;7.024;2023-05-22T05:51:41;101173.47;;;19.44;100.00
58534;BME280;44109;52.398;7.024;2023-05-22T05:54:09;101178.13;;;19.24;100.00
58534;BME280;44109;52.398;7.024;2023-05-22T05:56:37;101175.59;;;19.67;100.00
58534;BME280;44109;52.398;7.024;2023-05-22T05:59:04;101186.91;;;19.91;100.00
58534;BME280;44109;52.398;7.024;2023-05-22T06:01:34;101170.81;;;19.91;100.00
58534;BME280;44109;52.398;7.024;2023-05-22T06:04:02;101187.50;;;20.06;100.00
58534;BME280;44109;52.398;7.024;2023-05-22T06:06:30;101191.16;;;20.02;100.00
58534;BME280;44109;52.398;7.024;2023-05-22T06:09:00;101183.66;;;19.92;100.00
58534;BME280;44109;52.398;7.024;2023-05-22T06:11:28;101192.00;;;19.99;100.00
58534;BME280;44109;52.398;7.024;2023-05-22T06:13:56;101189.34;;;20.16;100.00
58534;BME280;44109;52.398;7.024;2023-05-22T06:16:24;101195.09;;;19.82;100.00
58534;BME280;44109;52.398;7.024;2023-05-22T06:18:56;101195.50;;;20.07;100.00
58534;BME280;44109;52.398;7.024;2023-05-22T06:21:24;101202.25;;;19.86;100.00
58534;BME280;44109;52.398;7.024;2023-05-22T06:23:52;101202.16;;;19.93;100.00
58534;BME280;44109;52.398;7.024;2023-05-22T06:26:19;101199.97;;;20.32;100.00
58534;BME280;44109;52.398;7.024;2023-05-22T06:28:48;101205.28;;;20.26;100.00
58534;BME280;44109;52.398;7.024;2023-05-22T06:31:16;101201.84;;;20.38;100.00
58534;BME280;44109;52.398;7.024;2023-05-22T06:33:44;101207.53;;;20.35;100.00
58534;BME280;44109;52.398;7.024;2023-05-22T06:36:13;101212.19;;;20.48;100.00
58534;BME280;44109;52.398;7.024;2023-05-22T06:38:41;101220.88;;;20.81;100.00
58534;BME280;44109;52.398;7.024;2023-05-22T06:41:09;101218.38;;;21.07;100.00
58534;BME280;44109;52.398;7.024;2023-05-22T06:43:36;101221.28;;;21.23;100.00
58534;BME280;44109;52.398;7.024;2023-05-22T06:46:04;101212.63;;;21.34;100.00
58534;BME280;44109;52.398;7.024;2023-05-22T06:48:32;101212.06;;;21.62;100.00
58534;BME280;44109;52.398;7.024;2023-05-22T06:51:01;101207.63;;;21.97;100.00
58534;BME280;44109;52.398;7.024;2023-05-22T06:53:30;101202.28;;;21.83;100.00
58534;BME280;44109;52.398;7.024;2023-05-22T06:55:58;101214.50;;;21.96;100.00
58534;BME280;44109;52.398;7.024;2023-05-22T06:58:26;101212.47;;;21.97;100.00
58534;BME280;44109;52.398;7.024;2023-05-22T07:00:53;101215.06;;;22.08;100.00
58534;BME280;44109;52.398;7.024;2023-05-22T07:03:21;101187.00;;;22.33;100.00
58534;BME280;44109;52.398;7.024;2023-05-22T07:05:49;101217.03;;;22.76;100.00
58534;BME280;44109;52.398;7.024;2023-05-22T07:08:16;101211.38;;;22.76;100.00
58534;BME280;44109;52.398;7.024;2023-05-22T07:10:45;101214.22;;;22.60;100.00
58534;BME280;44109;52.398;7.024;2023-05-22T07:13:13;101218.63;;;22.61;100.00
58534;BME280;44109;52.398;7.024;2023-05-22T07:15:40;101196.16;;;22.70;100.00
58534;BME280;44109;52.398;7.024;2023-05-22T07:18:08;101226.75;;;22.42;100.00
58534;BME280;44109;52.398;7.024;2023-05-22T07:20:36;101221.28;;;22.19;100.00
58534;BME280;44109;52.398;7.024;2023-05-22T07:23:04;101224.56;;;22.50;100.00
58534;BME280;44109;52.398;7.024;2023-05-22T07:25:32;101223.94;;;22.59;100.00
58534;BME280;44109;52.398;7.024;2023-05-22T07:28:01;101222.53;;;22.50;100.00
58534;BME280;44109;52.398;7.024;2023-05-22T07:30:34;101199.53;;;22.65;100.00
58534;BME280;44109;52.398;7.024;2023-05-22T07:33:04;101225.09;;;23.07;100.00
58534;BME280;44109;52.398;7.024;2023-05-22T07:35:32;101213.13;;;22.70;100.00
58534;BME280;44109;52.398;7.024;2023-05-22T07:38:00;101207.84;;;23.17;100.00
58534;BME280;44109;52.398;7.024;2023-05-22T07:40:27;101223.38;;;22.80;100.00
58534;BME280;44109;52.398;7.024;2023-05-22T07:42:55;101220.66;;;22.60;100.00
58534;BME280;44109;52.398;7.024;2023-05-22T07:45:24;101222.78;;;23.18;100.00
58534;BME280;44109;52.398;7.024;2023-05-22T07:47:51;101217.31;;;23.52;100.00
58534;BME280;44109;52.398;7.024;2023-05-22T07:50:19;101209.97;;;23.55;100.00
58534;BME280;44109;52.398;7.024;2023-05-22T07:52:47;101217.19;;;23.85;100.00
58534;BME280;44109;52.398;7.024;2023-05-22T07:55:14;101213.31;;;23.79;100.00
58534;BME280;44109;52.398;7.024;2023-05-22T07:57:42;101213.03;;;23.61;100.00
58534;BME280;44109;52.398;7.024;2023-05-22T08:00:11;101210.16;;;23.77;100.00
58534;BME280;44109;52.398;7.024;2023-05-22T08:02:43;101218.81;;;23.44;100.00
58534;BME280;44109;52.398;7.024;2023-05-22T08:05:11;101222.09;;;23.85;100.00
58534;BME280;44109;52.398;7.024;2023-05-22T08:07:39;101222.06;;;23.43;100.00
58534;BME280;44109;52.398;7.024;2023-05-22T08:10:14;101212.03;;;23.13;100.00
58534;BME280;44109;52.398;7.024;2023-05-22T08:12:42;101222.19;;;23.10;100.00
58534;BME280;44109;52.398;7.024;2023-05-22T08:15:10;101222.72;;;22.89;100.00
58534;BME280;44109;52.398;7.024;2023-05-22T08:17:38;101231.34;;;22.85;100.00
58534;BME280;44109;52.398;7.024;2023-05-22T08:20:08;101224.06;;;22.84;100.00
58534;BME280;44109;52.398;7.024;2023-05-22T08:22:38;101220.81;;;22.69;100.00
58534;BME280;44109;52.398;7.024;2023-05-22T08:25:06;101225.88;;;23.65;100.00
58534;BME280;44109;52.398;7.024;2023-05-22T08:27:35;101224.44;;;24.24;100.00
58534;BME280;44109;52.398;7.024;2023-05-22T08:30:03;101218.53;;;23.93;100.00
58534;BME280;44109;52.398;7.024;2023-05-22T08:32:31;101215.75;;;23.10;100.00
58534;BME280;44109;52.398;7.024;2023-05-22T08:34:59;101216.22;;;23.21;100.00
58534;BME280;44109;52.398;7.024;2023-05-22T08:37:29;101215.16;;;23.73;100.00
58534;BME280;44109;52.398;7.024;2023-05-22T08:39:56;101210.28;;;23.99;100.00
58534;BME280;44109;52.398;7.024;2023-05-22T08:42:24;101207.00;;;24.00;100.00
58534;BME280;44109;52.398;7.024;2023-05-22T08:44:51;101206.75;;;24.20;100.00
58534;BME280;44109;52.398;7.024;2023-05-22T08:47:21;101213.81;;;24.41;100.00
58534;BME280;44109;52.398;7.024;2023-05-22T08:49:53;101210.84;;;24.07;100.00
58534;BME280;44109;52.398;7.024;2023-05-22T08:52:33;101213.38;;;24.77;100.00
58534;BME280;44109;52.398;7.024;2023-05-22T08:55:07;101213.00;;;24.15;100.00
58534;BME280;44109;52.398;7.024;2023-05-22T08:57:35;101214.47;;;24.20;100.00
58534;BME280;44109;52.398;7.024;2023-05-22T09:00:05;101218.31;;;24.51;100.00
58534;BME280;44109;52.398;7.024;2023-05-22T09:02:33;101211.09;;;23.99;100.00
58534;BME280;44109;52.398;7.024;2023-05-22T09:05:01;101205.34;;;24.76;100.00
58534;BME280;44109;52.398;7.024;2023-05-22T09:07:31;101212.03;;;25.17;98.36
58534;BME280;44109;52.398;7.024;2023-05-22T09:09:59;101210.00;;;25.04;100.00
58534;BME280;44109;52.398;7.024;2023-05-22T09:12:30;101208.53;;;25.35;100.00
58534;BME280;44109;52.398;7.024;2023-05-22T09:15:06;101201.31;;;25.74;100.00
58534;BME280;44109;52.398;7.024;2023-05-22T09:17:38;101203.94;;;25.37;93.40
58534;BME280;44109;52.398;7.024;2023-05-22T09:20:07;101201.22;;;25.34;99.41
58534;BME280;44109;52.398;7.024;2023-05-22T09:22:39;101200.69;;;25.48;91.20
58534;BME280;44109;52.398;7.024;2023-05-22T09:25:07;101200.78;;;25.88;92.79
58534;BME280;44109;52.398;7.024;2023-05-22T09:27:35;101193.53;;;25.87;92.65
58534;BME280;44109;52.398;7.024;2023-05-22T09:30:03;101197.53;;;25.46;89.25
58534;BME280;44109;52.398;7.024;2023-05-22T09:32:34;101187.81;;;25.56;84.85
58534;BME280;44109;52.398;7.024;2023-05-22T09:35:02;101195.78;;;25.39;89.15
58534;BME280;44109;52.398;7.024;2023-05-22T09:37:32;101191.47;;;25.13;88.04
58534;BME280;44109;52.398;7.024;2023-05-22T09:40:04;101182.97;;;25.13;92.40
58534;BME280;44109;52.398;7.024;2023-05-22T09:42:33;101183.94;;;25.19;98.46
58534;BME280;44109;52.398;7.024;2023-05-22T09:45:02;101193.91;;;25.23;96.65
58534;BME280;44109;52.398;7.024;2023-05-22T09:47:32;101195.38;;;25.28;91.45
58534;BME280;44109;52.398;7.024;2023-05-22T09:50:02;101174.91;;;24.76;99.01
58534;BME280;44109;52.398;7.024;2023-05-22T09:52:33;101187.06;;;24.77;100.00
58534;BME280;44109;52.398;7.024;2023-05-22T09:55:04;101187.81;;;24.90;100.00
58534;BME280;44109;52.398;7.024;2023-05-22T09:57:40;101193.50;;;25.34;100.00
58534;BME280;44109;52.398;7.024;2023-05-22T10:00:11;101190.69;;;25.65;89.22
58534;BME280;44109;52.398;7.024;2023-05-22T10:02:44;101185.06;;;26.05;87.20
58534;BME280;44109;52.398;7.024;2023-05-22T10:05:14;101191.53;;;25.44;93.36
58534;BME280;44109;52.398;7.024;2023-05-22T10:07:48;101189.56;;;25.85;94.61
58534;BME280;44109;52.398;7.024;2023-05-22T10:10:20;101187.84;;;25.87;87.37
58534;BME280;44109;52.398;7.024;2023-05-22T10:12:53;101183.22;;;24.93;94.93
58534;BME280;44109;52.398;7.024;2023-05-22T10:15:23;101187.72;;;26.00;94.56
58534;BME280;44109;52.398;7.024;2023-05-22T10:17:53;101166.38;;;25.64;95.96
58534;BME280;44109;52.398;7.024;2023-05-22T10:20:21;101177.34;;;26.15;92.82
58534;BME280;44109;52.398;7.024;2023-05-22T10:22:50;101177.88;;;25.83;85.14
58534;BME280;44109;52.398;7.024;2023-05-22T10:25:21;101179.41;;;26.15;86.16
58534;BME280;44109;52.398;7.024;2023-05-22T10:27:51;101174.06;;;26.17;85.73
58534;BME280;44109;52.398;7.024;2023-05-22T10:30:23;101177.97;;;26.78;86.43
58534;BME280;44109;52.398;7.024;2023-05-22T10:33:02;101178.03;;;26.38;87.33
58534;BME280;44109;52.398;7.024;2023-05-22T10:35:41;101156.94;;;26.94;81.10
58534;BME280;44109;52.398;7.024;2023-05-22T10:38:44;101171.06;;;26.29;79.31
58534;BME280;44109;52.398;7.024;2023-05-22T10:41:27;101160.16;;;26.28;82.00
58534;BME280;44109;52.398;7.024;2023-05-22T10:43:56;101165.78;;;26.00;84.89
58534;BME280;44109;52.398;7.024;2023-05-22T10:46:23;101160.56;;;26.94;86.92
58534;BME280;44109;52.398;7.024;2023-05-22T10:48:52;101155.53;;;26.71;80.72
58534;BME280;44109;52.398;7.024;2023-05-22T10:51:21;101153.00;;;27.10;76.80
58534;BME280;44109;52.398;7.024;2023-05-22T10:53:50;101145.56;;;26.94;73.04
58534;BME280;44109;52.398;7.024;2023-05-22T10:56:19;101152.03;;;27.22;65.95
58534;BME280;44109;52.398;7.024;2023-05-22T10:58:56;101147.56;;;27.02;68.51
58534;BME280;44109;52.398;7.024;2023-05-22T11:01:27;101145.81;;;26.41;70.57
58534;BME280;44109;52.398;7.024;2023-05-22T11:03:56;101147.56;;;27.02;77.58
58534;BME280;44109;52.398;7.024;2023-05-22T11:06:32;101148.84;;;26.92;68.50
58534;BME280;44109;52.398;7.024;2023-05-22T11:09:17;101149.00;;;26.89;71.71
58534;BME280;44109;52.398;7.024;2023-05-22T11:11:47;101151.22;;;26.48;72.21
58534;BME280;44109;52.398;7.024;2023-05-22T11:15:01;101146.34;;;26.58;73.88
58534;BME280;44109;52.398;7.024;2023-05-22T11:17:32;101156.47;;;26.00;72.38
58534;BME280;44109;52.398;7.024;2023-05-22T11:20:12;101144.09;;;26.52;78.21
58534;BME280;44109;52.398;7.024;2023-05-22T11:22:49;101139.03;;;26.93;68.72
58534;BME280;44109;52.398;7.024;2023-05-22T11:25:23;101149.66;;;25.97;71.03
58534;BME280;44109;52.398;7.024;2023-05-22T11:27:52;101143.25;;;26.24;73.60
58534;BME280;44109;52.398;7.024;2023-05-22T11:30:25;101141.13;;;25.97;70.42
58534;BME280;44109;52.398;7.024;2023-05-22T11:32:56;101146.50;;;26.45;70.61
58534;BME280;44109;52.398;7.024;2023-05-22T11:35:24;101150.69;;;26.31;70.68
58534;BME280;44109;52.398;7.024;2023-05-22T11:37:53;101148.19;;;25.84;69.45
58534;BME280;44109;52.398;7.024;2023-05-22T11:40:23;101152.00;;;25.59;68.93
58534;BME280;44109;52.398;7.024;2023-05-22T11:42:55;101147.34;;;26.14;71.75
58534;BME280;44109;52.398;7.024;2023-05-22T11:45:25;101133.06;;;26.45;68.11
58534;BME280;44109;52.398;7.024;2023-05-22T11:47:53;101137.19;;;26.72;65.56
58534;BME280;44109;52.398;7.024;2023-05-22T11:50:21;101145.72;;;26.72;62.58
58534;BME280;44109;52.398;7.024;2023-05-22T11:52:49;101145.72;;;26.53;68.09
58534;BME280;44109;52.398;7.024;2023-05-22T11:55:21;101132.38;;;27.24;69.47
58534;BME280;44109;52.398;7.024;2023-05-22T11:57:50;101141.28;;;26.89;65.63
58534;BME280;44109;52.398;7.024;2023-05-22T12:00:18;101136.81;;;27.16;67.28
58534;BME280;44109;52.398;7.024;2023-05-22T12:02:48;101132.00;;;27.49;64.56
58534;BME280;44109;52.398;7.024;2023-05-22T12:05:15;101129.09;;;27.68;68.23
58534;BME280;44109;52.398;7.024;2023-05-22T12:07:43;101124.34;;;28.07;62.52
58534;BME280;44109;52.398;7.024;2023-05-22T12:10:13;101126.69;;;28.09;66.29
58534;BME280;44109;52.398;7.024;2023-05-22T12:12:43;101119.97;;;27.54;65.84
58534;BME280;44109;52.398;7.024;2023-05-22T12:15:13;101126.34;;;27.40;66.54
58534;BME280;44109;52.398;7.024;2023-05-22T12:17:41;101128.00;;;26.95;67.96
58534;BME280;44109;52.398;7.024;2023-05-22T12:20:11;101122.25;;;26.31;66.77
58534;BME280;44109;52.398;7.024;2023-05-22T12:22:40;101126.38;;;26.39;69.40
58534;BME280;44109;52.398;7.024;2023-05-22T12:25:13;101120.97;;;26.23;67.76
58534;BME280;44109;52.398;7.024;2023-05-22T12:27:42;101119.31;;;26.44;73.25
58534;BME280;44109;52.398;7.024;2023-05-22T12:30:12;101114.38;;;27.09;70.32
58534;BME280;44109;52.398;7.024;2023-05-22T12:32:46;101110.66;;;27.45;67.21
58534;BME280;44109;52.398;7.024;2023-05-22T12:35:16;101122.94;;;26.90;65.47
58534;BME280;44109;52.398;7.024;2023-05-22T12:37:48;101119.16;;;27.12;64.58
58534;BME280;44109;52.398;7.024;2023-05-22T12:40:16;101118.19;;;26.87;72.11
58534;BME280;44109;52.398;7.024;2023-05-22T12:42:43;101118.97;;;26.88;69.66
58534;BME280;44109;52.398;7.024;2023-05-22T12:45:11;101102.06;;;27.12;68.38
58534;BME280;44109;52.398;7.024;2023-05-22T12:47:39;101111.81;;;27.20;66.45
58534;BME280;44109;52.398;7.024;2023-05-22T12:50:07;101111.38;;;26.94;70.87
58534;BME280;44109;52.398;7.024;2023-05-22T12:52:36;101102.84;;;27.54;71.53
58534;BME280;44109;52.398;7.024;2023-05-22T12:55:05;101099.69;;;27.52;67.42
58534;BME280;44109;52.398;7.024;2023-05-22T12:57:33;101108.41;;;27.58;62.36
58534;BME280;44109;52.398;7.024;2023-05-22T13:00:01;101098.84;;;28.03;63.00